Airfield :
LOGIN :

Register | Disclaimer

   EN    FR    IT 

 










Legend :    VFR   Marginal VFR   IFR   Intensive IFR   Very Intensive IFR
Visi :
Ceiling :
>= 8 km
>= 3000ft
5 to 8 km
1000 to 3000 ft
1500m to 5 km
500 to 1000 ft
800 to 1500m
200 to 500 ft
< 800m
< 200 ft
Symbols :   Thunderstorms  Fog  Heavy snow  Heavy precipitations  Wind > 20 kt
SIGMETs :     Misc.  Thunderstorms  Icing  Turbulence  Mountain Waves  Volcanic Ashes






- Airport Elevation : 230 ft


ETHB - Buckeburg Army

CURRENT METAR :
  • 182220Z 22017G28KT 9999 VCSH FEW032 SCT045 BKN140 07/02 Q1014 BLU

EXPIRED METARs :
  • 182120Z 23016G26KT 9999 SCT032 BKN050 07/01 Q1015 BLU
  • 182020Z 23014KT 9999 FEW035 BKN050 BKN190 07/02 Q1016 BLU FCST CANCEL

TAF TAF ETHB
Valid from the 18 at 21:00 until the 19 at 06:00 UTC


182023Z 1821/1906 23012G22KT 9999 NSW FEW020 BKN035
TEMPO 1823/1906 24015G27KT 4000 SHRA BKN012 BKN020 CANCEL 2100



MET'MAP, your aeronautical weather chart ! - Copyright ORBIFLY December 2007 - Disclaimer

ORBIFLY MET'MAP TEAM :

Programming & Development : Alexandra Zaïnal
Concept & original design : Baudouin d'Aumeries
Assistance for programming : Marc-Olivier Méhu
Technical & hardware support : Manuel Goepfert

Contact : metmap@orbifly.com




SOURCES & CREDITS :

   NOAA